createdAt,value
2019-02-18T00:01:11.608Z,58.27
2019-02-18T00:03:41.141Z,59.83
2019-02-18T00:06:10.696Z,53.83
2019-02-18T00:08:40.251Z,51.40
2019-02-18T00:11:09.722Z,55.67
2019-02-18T00:13:39.750Z,52.33
2019-02-18T00:16:09.278Z,52.27
2019-02-18T00:18:38.786Z,51.80
2019-02-18T00:21:08.258Z,54.33
2019-02-18T00:23:37.794Z,51.97
2019-02-18T00:26:07.262Z,47.30
2019-02-18T00:28:37.044Z,48.23
2019-02-18T00:31:06.673Z,46.93
2019-02-18T00:33:36.172Z,45.37
2019-02-18T00:36:05.688Z,45.90
2019-02-18T00:38:35.200Z,50.43
2019-02-18T00:41:04.669Z,48.57
2019-02-18T00:43:34.197Z,43.53
2019-02-18T00:46:03.744Z,42.13
2019-02-18T00:48:33.206Z,43.17
2019-02-18T00:51:02.693Z,43.77
2019-02-18T00:53:32.176Z,42.17
2019-02-18T00:56:01.698Z,42.07
2019-02-18T00:58:31.191Z,45.43
2019-02-18T01:01:00.720Z,47.67
2019-02-18T01:03:30.203Z,42.33
2019-02-18T01:06:02.329Z,42.27
2019-02-18T01:08:32.003Z,43.70
2019-02-18T01:11:01.515Z,41.90
2019-02-18T01:13:31.006Z,39.80
2019-02-18T01:16:00.463Z,42.77
2019-02-18T01:18:29.935Z,43.70
2019-02-18T01:20:59.439Z,39.50
2019-02-18T01:23:29.007Z,41.47
2019-02-18T01:25:58.530Z,45.13
2019-02-18T01:28:27.994Z,42.70
2019-02-18T01:30:57.451Z,47.73
2019-02-18T01:33:28.782Z,46.63
2019-02-18T01:35:58.308Z,42.17
2019-02-18T01:38:27.813Z,43.50
2019-02-18T01:40:57.286Z,41.07
2019-02-18T01:43:26.800Z,41.10
2019-02-18T01:45:56.249Z,42.37
2019-02-18T01:48:25.849Z,45.73
2019-02-18T01:50:55.358Z,41.43
2019-02-18T01:53:24.836Z,41.90
2019-02-18T01:55:54.413Z,41.53
2019-02-18T01:58:27.204Z,44.87
2019-02-18T02:00:56.761Z,42.23
2019-02-18T02:03:26.303Z,46.73
2019-02-18T02:05:55.868Z,42.67
2019-02-18T02:08:25.329Z,40.40
2019-02-18T02:10:54.800Z,43.30
2019-02-18T02:13:31.785Z,43.97
2019-02-18T02:16:02.722Z,41.70
2019-02-18T02:18:32.191Z,46.93
2019-02-18T02:21:01.678Z,45.17
2019-02-18T02:23:31.176Z,42.83
2019-02-18T02:26:00.645Z,40.20
2019-02-18T02:28:30.180Z,44.20
2019-02-18T02:31:01.007Z,40.33
2019-02-18T02:33:30.895Z,42.27
2019-02-18T02:36:00.373Z,42.93
2019-02-18T02:38:29.847Z,47.87
2019-02-18T02:40:59.680Z,43.77
2019-02-18T02:43:29.190Z,39.47
2019-02-18T02:45:58.701Z,46.67
2019-02-18T02:48:28.142Z,39.30
2019-02-18T02:50:57.601Z,44.67
2019-02-18T02:53:27.097Z,46.30
2019-02-18T02:55:58.367Z,43.87
2019-02-18T02:58:27.846Z,36.87
2019-02-18T03:00:57.319Z,42.63
2019-02-18T03:03:26.830Z,41.63
2019-02-18T03:06:01.631Z,43.07
2019-02-18T03:08:31.154Z,39.60
2019-02-18T03:11:00.657Z,38.27
2019-02-18T03:13:30.122Z,40.90
2019-02-18T03:15:59.626Z,39.23
2019-02-18T03:18:29.113Z,40.53
2019-02-18T03:20:58.604Z,38.03
2019-02-18T03:23:28.111Z,39.10
2019-02-18T03:25:57.629Z,35.00
2019-02-18T03:29:23.123Z,37.03
2019-02-18T03:31:52.615Z,36.10
2019-02-18T03:34:31.989Z,38.57
2019-02-18T03:37:01.466Z,34.47
2019-02-18T03:39:31.024Z,37.87
2019-02-18T03:42:00.548Z,33.63
2019-02-18T03:44:30.119Z,34.53
2019-02-18T03:46:59.677Z,35.57
2019-02-18T03:49:29.161Z,39.83
2019-02-18T03:51:58.662Z,37.67
2019-02-18T03:54:28.171Z,32.00
2019-02-18T03:56:57.659Z,34.63
2019-02-18T03:59:27.178Z,31.87
2019-02-18T04:01:56.819Z,32.20
2019-02-18T04:04:26.370Z,38.67
2019-02-18T04:06:57.977Z,40.10
2019-02-18T04:09:27.442Z,44.73
2019-02-18T04:11:56.899Z,37.67
2019-02-18T04:14:26.397Z,34.57
2019-02-18T04:16:55.913Z,32.83
2019-02-18T04:19:25.409Z,32.63
2019-02-18T04:21:54.867Z,33.70
2019-02-18T04:24:24.382Z,38.20
2019-02-18T04:26:53.862Z,35.23
2019-02-18T04:29:23.386Z,34.70
2019-02-18T04:31:52.892Z,30.63
2019-02-18T04:34:22.374Z,37.77
2019-02-18T04:36:51.861Z,33.40
2019-02-18T04:39:21.383Z,33.83
2019-02-18T04:41:50.861Z,31.80
2019-02-18T04:44:20.382Z,35.67
2019-02-18T04:46:49.877Z,36.43
2019-02-18T04:49:19.343Z,29.50
2019-02-18T04:51:48.847Z,38.13
2019-02-18T04:54:18.337Z,39.13
2019-02-18T04:56:50.047Z,31.20
2019-02-18T04:59:19.546Z,30.00
2019-02-18T05:01:49.074Z,32.90
2019-02-18T05:04:18.536Z,27.90
2019-02-18T05:06:48.024Z,30.50
2019-02-18T05:09:17.496Z,38.40
2019-02-18T05:11:46.972Z,33.47
2019-02-18T05:14:16.491Z,31.80
2019-02-18T05:16:46.101Z,33.83
2019-02-18T05:19:15.564Z,31.60
2019-02-18T05:21:45.078Z,35.30
2019-02-18T05:24:14.697Z,35.37
2019-02-18T05:26:44.191Z,38.07
2019-02-18T05:29:13.659Z,34.33
2019-02-18T05:31:43.207Z,37.93
2019-02-18T05:34:12.736Z,31.30
2019-02-18T05:36:42.331Z,33.83
2019-02-18T05:39:18.019Z,42.23
2019-02-18T05:41:42.978Z,40.83
2019-02-18T05:44:12.560Z,40.77
2019-02-18T05:46:48.714Z,42.83
2019-02-18T05:49:13.669Z,39.23
2019-02-18T05:51:43.403Z,35.60
2019-02-18T05:54:12.916Z,37.93
2019-02-18T05:56:42.518Z,41.10
2019-02-18T05:59:12.008Z,36.93
2019-02-18T06:01:41.480Z,42.67
2019-02-18T06:04:10.943Z,40.90
2019-02-18T06:06:40.412Z,37.30
2019-02-18T06:09:09.886Z,43.57
2019-02-18T06:11:39.511Z,55.60
2019-02-18T06:14:09.010Z,53.83
2019-02-18T06:16:38.512Z,48.70
2019-02-18T06:19:08.019Z,47.53
2019-02-18T06:21:37.505Z,55.20
2019-02-18T06:24:06.979Z,52.37
2019-02-18T06:26:36.482Z,53.80
2019-02-18T06:29:06.247Z,65.40
2019-02-18T06:31:35.780Z,77.10
2019-02-18T06:34:05.284Z,78.07
2019-02-18T06:36:34.847Z,74.90
2019-02-18T06:39:05.686Z,85.20
2019-02-18T06:41:35.268Z,72.73
2019-02-18T06:44:04.767Z,73.63
2019-02-18T06:46:37.203Z,74.47
2019-02-18T06:49:10.487Z,78.17
2019-02-18T06:51:39.977Z,78.77
2019-02-18T06:54:09.461Z,74.90
2019-02-18T06:57:00.743Z,71.87
2019-02-18T06:59:34.371Z,81.57
2019-02-18T07:02:08.955Z,76.97
2019-02-18T07:05:01.797Z,72.40
2019-02-18T07:07:39.193Z,87.83
2019-02-18T07:10:14.561Z,81.33
2019-02-18T07:12:47.651Z,69.57
2019-02-18T07:15:17.192Z,73.30
2019-02-18T07:17:46.722Z,68.70
2019-02-18T07:20:16.214Z,66.33
2019-02-18T07:22:45.713Z,69.83
2019-02-18T07:25:15.195Z,76.30
2019-02-18T07:27:44.807Z,74.33
2019-02-18T07:30:16.091Z,72.63
2019-02-18T07:32:45.621Z,74.53
2019-02-18T07:35:16.841Z,75.80
2019-02-18T07:37:46.349Z,83.37
2019-02-18T07:40:15.857Z,79.47
2019-02-18T07:42:45.374Z,83.87
2019-02-18T07:45:14.893Z,77.23
2019-02-18T07:47:44.378Z,75.27
2019-02-18T07:50:20.677Z,82.20
2019-02-18T07:52:45.219Z,75.67
2019-02-18T07:55:14.704Z,75.13
2019-02-18T07:57:44.237Z,74.23
2019-02-18T08:00:14.596Z,81.53
2019-02-18T08:02:44.075Z,73.87
2019-02-18T08:05:13.570Z,81.70
2019-02-18T08:07:43.094Z,74.20
2019-02-18T08:10:12.717Z,83.33
2019-02-18T08:12:42.185Z,77.60
2019-02-18T08:15:11.845Z,75.20
2019-02-18T08:17:41.345Z,75.17
2019-02-18T08:20:10.892Z,74.07
2019-02-18T08:22:40.397Z,72.67
2019-02-18T08:25:10.302Z,69.00
2019-02-18T08:27:39.772Z,61.73
2019-02-18T08:30:10.717Z,60.10
2019-02-18T08:32:40.216Z,60.83
2019-02-18T08:35:09.963Z,58.37
2019-02-18T08:37:39.462Z,57.73
2019-02-18T08:40:09.044Z,65.13
2019-02-18T08:42:38.550Z,61.37
2019-02-18T08:45:10.540Z,65.00
2019-02-18T08:47:40.017Z,57.77
2019-02-18T08:50:11.076Z,59.07
2019-02-18T08:52:40.543Z,56.37
2019-02-18T08:55:11.618Z,58.97
2019-02-18T08:57:41.101Z,61.63
2019-02-18T09:00:13.733Z,55.10
2019-02-18T09:02:43.248Z,56.50
2019-02-18T09:05:12.866Z,56.70
2019-02-18T09:07:42.386Z,57.77
2019-02-18T09:10:12.376Z,58.27
2019-02-18T09:12:41.839Z,58.40
2019-02-18T09:15:13.998Z,57.47
2019-02-18T09:17:42.773Z,55.43
2019-02-18T09:20:12.234Z,50.83
2019-02-18T09:23:00.620Z,59.00
2019-02-18T09:25:52.312Z,55.33
2019-02-18T09:28:21.780Z,57.73
2019-02-18T09:30:53.381Z,54.70
2019-02-18T09:33:22.904Z,53.97
2019-02-18T09:35:52.443Z,57.07
2019-02-18T09:38:24.896Z,56.07
2019-02-18T09:40:53.175Z,54.43
2019-02-18T09:43:22.705Z,50.80
2019-02-18T09:45:52.191Z,57.40
2019-02-18T09:48:21.691Z,53.83
2019-02-18T09:50:51.147Z,56.83
2019-02-18T09:53:20.618Z,55.33
2019-02-18T09:55:50.097Z,52.97
2019-02-18T09:58:19.591Z,54.23
2019-02-18T10:00:49.059Z,54.03
2019-02-18T10:03:18.564Z,52.33
2019-02-18T10:05:48.044Z,53.60
2019-02-18T10:08:17.503Z,54.83
2019-02-18T10:10:55.454Z,55.57
2019-02-18T10:13:18.255Z,60.60
2019-02-18T10:15:47.779Z,55.23
2019-02-18T10:18:17.288Z,50.17
2019-02-18T10:20:46.815Z,58.77
2019-02-18T10:23:16.279Z,56.73
2019-02-18T10:25:45.869Z,48.33
2019-02-18T10:28:15.342Z,46.53
2019-02-18T10:30:44.875Z,45.90
2019-02-18T10:33:14.336Z,53.60
2019-02-18T10:35:43.818Z,47.20
2019-02-18T10:38:13.300Z,48.20
2019-02-18T10:40:42.785Z,53.17
2019-02-18T10:43:12.273Z,56.17
2019-02-18T10:45:41.776Z,62.03
2019-02-18T10:48:11.283Z,57.30
2019-02-18T10:50:41.115Z,52.87
2019-02-18T10:53:10.728Z,51.07
2019-02-18T10:55:40.287Z,51.37
2019-02-18T10:58:09.821Z,51.70
2019-02-18T11:00:39.305Z,49.37
2019-02-18T11:03:08.806Z,51.90
2019-02-18T11:05:38.613Z,52.80
2019-02-18T11:08:08.122Z,52.43
2019-02-18T11:10:37.670Z,55.83
2019-02-18T11:13:07.178Z,51.03
2019-02-18T11:15:36.693Z,58.23
2019-02-18T11:18:06.233Z,54.97
2019-02-18T11:20:35.710Z,56.50
2019-02-18T11:23:05.236Z,57.90
2019-02-18T11:25:34.715Z,61.10
2019-02-18T11:28:04.661Z,52.23
2019-02-18T11:30:34.165Z,60.50
2019-02-18T11:33:03.987Z,50.40
2019-02-18T11:35:33.431Z,48.50
2019-02-18T11:38:02.977Z,55.53
2019-02-18T11:40:32.499Z,52.73
2019-02-18T11:43:02.013Z,53.53
2019-02-18T11:45:31.520Z,56.17
2019-02-18T11:48:01.240Z,48.73
2019-02-18T11:50:30.755Z,48.83
2019-02-18T11:53:00.304Z,51.20
2019-02-18T11:55:30.043Z,49.80
2019-02-18T11:57:59.529Z,54.40
2019-02-18T12:00:29.154Z,48.10
2019-02-18T12:03:03.157Z,50.70
2019-02-18T12:05:29.879Z,52.27
2019-02-18T12:07:59.372Z,52.63
2019-02-18T12:10:28.895Z,50.13
2019-02-18T12:12:58.360Z,45.40
2019-02-18T12:15:27.872Z,41.07
2019-02-18T12:17:57.398Z,38.83
2019-02-18T12:20:26.918Z,46.33
2019-02-18T12:22:56.417Z,51.43
2019-02-18T12:25:26.091Z,45.10
2019-02-18T12:27:55.667Z,44.67
2019-02-18T12:30:25.212Z,44.77
2019-02-18T12:32:54.760Z,44.90
2019-02-18T12:35:30.906Z,41.27
2019-02-18T12:37:55.838Z,42.07
2019-02-18T12:40:25.333Z,44.33
2019-02-18T12:42:54.956Z,48.40
2019-02-18T12:45:24.448Z,42.77
2019-02-18T12:47:54.108Z,50.17
2019-02-18T12:50:23.690Z,44.40
2019-02-18T12:52:53.464Z,44.93
2019-02-18T12:55:23.093Z,50.70
2019-02-18T12:57:52.899Z,42.73
2019-02-18T13:00:22.368Z,43.17
2019-02-18T13:02:52.033Z,48.90
2019-02-18T13:05:21.541Z,45.17
2019-02-18T13:07:51.101Z,41.57
2019-02-18T13:10:20.836Z,41.93
2019-02-18T13:12:50.384Z,46.83
2019-02-18T13:15:20.007Z,43.93
2019-02-18T13:17:49.588Z,49.83
2019-02-18T13:20:19.136Z,41.87
2019-02-18T13:22:48.838Z,43.57
2019-02-18T13:25:18.377Z,40.13
2019-02-18T13:27:48.293Z,40.20
2019-02-18T13:30:17.817Z,40.47
2019-02-18T13:32:47.359Z,40.67
2019-02-18T13:35:16.846Z,40.30
2019-02-18T13:37:46.371Z,40.20
2019-02-18T13:40:17.320Z,41.70
2019-02-18T13:42:47.219Z,36.73
2019-02-18T13:45:16.762Z,35.87
2019-02-18T13:47:46.336Z,42.63
2019-02-18T13:50:15.925Z,33.30
2019-02-18T13:52:45.438Z,31.00
2019-02-18T13:55:15.125Z,29.73
2019-02-18T13:57:44.943Z,30.77
2019-02-18T14:00:20.510Z,33.07
2019-02-18T14:02:50.788Z,30.33
2019-02-18T14:05:23.007Z,37.30
2019-02-18T14:07:52.557Z,30.63
2019-02-18T14:10:22.712Z,35.53
2019-02-18T14:12:52.221Z,38.30
2019-02-18T14:15:21.904Z,29.33
2019-02-18T14:17:51.454Z,33.67
2019-02-18T14:20:20.986Z,30.63
2019-02-18T14:22:50.592Z,30.27
2019-02-18T14:25:20.263Z,30.70
2019-02-18T14:27:49.801Z,34.60
2019-02-18T14:30:19.467Z,31.33
2019-02-18T14:32:49.114Z,31.10
2019-02-18T14:35:18.937Z,26.43
2019-02-18T14:37:49.404Z,32.10
2019-02-18T14:40:19.931Z,27.60
2019-02-18T14:42:49.436Z,29.83
2019-02-18T14:45:19.152Z,31.63
2019-02-18T14:47:48.636Z,33.50
2019-02-18T14:50:19.048Z,28.00
2019-02-18T14:52:48.992Z,33.43
2019-02-18T14:55:18.498Z,35.03
2019-02-18T14:57:48.109Z,35.60
2019-02-18T15:00:22.207Z,39.30
2019-02-18T15:02:56.423Z,43.50
2019-02-18T15:05:27.276Z,50.00
2019-02-18T15:07:56.767Z,46.90
2019-02-18T15:10:26.352Z,45.70
2019-02-18T15:12:55.888Z,45.80
2019-02-18T15:15:25.357Z,47.90
2019-02-18T15:17:54.937Z,45.87
2019-02-18T15:20:24.694Z,50.03
2019-02-18T15:22:54.148Z,53.00
2019-02-18T15:25:23.788Z,51.37
2019-02-18T15:27:53.281Z,39.97
2019-02-18T15:30:22.770Z,44.00
2019-02-18T15:32:52.263Z,47.60
2019-02-18T15:35:21.906Z,41.27
2019-02-18T15:37:51.515Z,42.97
2019-02-18T15:40:21.514Z,40.33
2019-02-18T15:42:51.131Z,39.90
2019-02-18T15:45:20.737Z,38.53
2019-02-18T15:47:50.222Z,45.27
2019-02-18T15:50:19.851Z,40.93
2019-02-18T15:52:49.355Z,50.23
2019-02-18T15:55:18.852Z,43.27
2019-02-18T15:57:48.402Z,39.77
2019-02-18T16:00:20.256Z,41.17
2019-02-18T16:02:50.030Z,45.17
2019-02-18T16:05:19.582Z,44.40
2019-02-18T16:07:49.071Z,43.87
2019-02-18T16:10:21.159Z,41.57
2019-02-18T16:12:51.269Z,46.37
2019-02-18T16:15:20.887Z,43.13
2019-02-18T16:17:50.396Z,38.93
2019-02-18T16:20:19.877Z,29.57
2019-02-18T16:22:49.365Z,31.83
2019-02-18T16:25:20.272Z,37.57
2019-02-18T16:27:49.916Z,33.43
2019-02-18T16:30:19.381Z,42.47
2019-02-18T16:32:48.853Z,35.30
2019-02-18T16:35:18.438Z,40.37
2019-02-18T16:37:48.017Z,43.10
2019-02-18T16:40:18.224Z,36.87
2019-02-18T16:42:47.694Z,38.00
2019-02-18T16:45:17.205Z,36.53
2019-02-18T16:47:46.662Z,38.23
2019-02-18T16:50:16.131Z,40.53
2019-02-18T16:52:45.623Z,41.30
2019-02-18T16:55:15.172Z,37.23
2019-02-18T16:57:44.700Z,38.47
2019-02-18T17:00:33.510Z,26.40
2019-02-18T17:03:03.044Z,27.03
2019-02-18T17:05:32.910Z,26.97
2019-02-18T17:08:02.445Z,36.70
2019-02-18T17:10:32.278Z,31.07
2019-02-18T17:13:07.918Z,32.87
2019-02-18T17:15:33.057Z,36.17
2019-02-18T17:18:02.533Z,33.63
2019-02-18T17:20:32.026Z,35.20
2019-02-18T17:23:01.551Z,42.37
2019-02-18T17:25:31.344Z,48.20
2019-02-18T17:28:00.836Z,49.83
2019-02-18T17:30:30.702Z,42.90
2019-02-18T17:33:00.184Z,42.40
2019-02-18T17:35:29.675Z,39.10
2019-02-18T17:37:59.176Z,40.67
2019-02-18T17:40:28.901Z,36.07
2019-02-18T17:42:58.438Z,41.10
2019-02-18T17:45:27.947Z,36.77
2019-02-18T17:47:57.450Z,32.03
2019-02-18T17:50:27.005Z,31.93
2019-02-18T17:52:58.106Z,30.03
2019-02-18T17:55:28.048Z,41.93
2019-02-18T17:57:57.708Z,34.50
2019-02-18T18:00:30.090Z,29.47
2019-02-18T18:02:59.594Z,37.07
2019-02-18T18:05:29.207Z,44.40
2019-02-18T18:07:59.091Z,38.33
2019-02-18T18:10:28.637Z,38.70
2019-02-18T18:12:58.188Z,38.93
2019-02-18T18:15:27.705Z,43.50
2019-02-18T18:17:57.202Z,46.27
2019-02-18T18:20:26.748Z,45.03
2019-02-18T18:22:58.525Z,46.93
2019-02-18T18:25:28.035Z,49.23
2019-02-18T18:27:57.526Z,41.73
2019-02-18T18:30:27.004Z,53.83
2019-02-18T18:32:56.599Z,58.40
2019-02-18T18:35:26.109Z,59.03
2019-02-18T18:37:55.998Z,45.80
2019-02-18T18:40:25.535Z,45.30
2019-02-18T18:42:54.999Z,66.10
2019-02-18T18:45:25.262Z,52.37
2019-02-18T18:47:54.764Z,50.23
2019-02-18T18:50:24.663Z,59.00
2019-02-18T18:52:55.950Z,57.70
2019-02-18T18:55:25.645Z,58.67
2019-02-18T18:57:55.248Z,47.73
2019-02-18T19:00:25.082Z,52.23
2019-02-18T19:02:54.751Z,64.67
2019-02-18T19:05:24.467Z,48.77
2019-02-18T19:07:54.270Z,61.97
2019-02-18T19:10:23.773Z,60.87
2019-02-18T19:12:55.294Z,53.17
2019-02-18T19:15:24.820Z,60.20
2019-02-18T19:17:54.713Z,67.87
2019-02-18T19:20:24.591Z,58.10
2019-02-18T19:22:54.150Z,57.47
2019-02-18T19:25:23.647Z,69.73
2019-02-18T19:27:53.175Z,58.63
2019-02-18T19:30:27.400Z,60.00
2019-02-18T19:32:57.153Z,55.43
2019-02-18T19:35:26.656Z,61.23
2019-02-18T19:37:56.154Z,62.67
2019-02-18T19:40:25.890Z,58.67
2019-02-18T19:42:55.419Z,57.10
2019-02-18T19:45:25.661Z,64.13
2019-02-18T19:47:55.218Z,53.30
2019-02-18T19:50:24.713Z,51.77
2019-02-18T19:52:56.132Z,50.73
2019-02-18T19:55:25.725Z,48.57
2019-02-18T19:57:55.217Z,42.10
2019-02-18T20:00:24.709Z,41.27
2019-02-18T20:02:54.194Z,47.50
2019-02-18T20:05:23.664Z,50.23
2019-02-18T20:07:53.255Z,46.37
2019-02-18T20:10:22.737Z,43.83
2019-02-18T20:12:52.727Z,43.43
2019-02-18T20:15:22.229Z,47.93
2019-02-18T20:17:51.722Z,44.67
2019-02-18T20:20:21.239Z,49.47
2019-02-18T20:22:50.711Z,52.17
2019-02-18T20:25:20.179Z,47.77
2019-02-18T20:27:49.972Z,52.10
2019-02-18T20:30:19.575Z,53.87
2019-02-18T20:32:49.052Z,52.03
2019-02-18T20:35:18.525Z,55.80
2019-02-18T20:37:47.982Z,47.57
2019-02-18T20:40:17.459Z,48.73
2019-02-18T20:42:46.965Z,50.87
2019-02-18T20:45:16.480Z,53.53
2019-02-18T20:47:45.979Z,53.77
2019-02-18T20:50:15.517Z,51.40
2019-02-18T20:52:44.989Z,51.10
2019-02-18T20:55:14.699Z,54.97
2019-02-18T20:57:44.332Z,57.20
2019-02-18T21:00:17.094Z,54.57
2019-02-18T21:02:46.994Z,62.57
2019-02-18T21:05:16.454Z,65.40
2019-02-18T21:07:45.965Z,55.87
2019-02-18T21:10:16.306Z,60.97
2019-02-18T21:12:45.843Z,55.60
2019-02-18T21:15:15.502Z,54.17
2019-02-18T21:17:45.024Z,55.37
2019-02-18T21:20:14.769Z,62.20
2019-02-18T21:22:44.247Z,51.83
2019-02-18T21:25:13.890Z,54.77
2019-02-18T21:27:43.416Z,51.03
2019-02-18T21:30:13.246Z,59.50
2019-02-18T21:32:42.743Z,74.93
2019-02-18T21:35:14.071Z,68.87
2019-02-18T21:37:44.213Z,95.70
2019-02-18T21:40:13.947Z,69.83
2019-02-18T21:42:43.421Z,58.03
2019-02-18T21:45:13.653Z,58.57
2019-02-18T21:47:43.204Z,61.27
2019-02-18T21:50:13.165Z,55.03
2019-02-18T21:52:42.922Z,56.37
2019-02-18T21:55:12.739Z,61.60
2019-02-18T21:57:42.299Z,62.20
2019-02-18T22:00:16.406Z,54.07
2019-02-18T22:02:45.908Z,52.33
2019-02-18T22:05:15.947Z,46.60
2019-02-18T22:07:45.482Z,47.97
2019-02-18T22:10:15.366Z,53.67
2019-02-18T22:12:44.827Z,47.37
2019-02-18T22:15:14.559Z,47.83
2019-02-18T22:17:44.052Z,39.50
2019-02-18T22:20:14.202Z,41.50
2019-02-18T22:22:43.723Z,39.57
2019-02-18T22:25:13.241Z,40.57
2019-02-18T22:27:43.379Z,40.43
2019-02-18T22:30:12.982Z,42.93
2019-02-18T22:32:42.458Z,39.70
2019-02-18T22:35:11.926Z,37.37
2019-02-18T22:37:41.434Z,46.47
2019-02-18T22:40:11.069Z,43.00
2019-02-18T22:42:40.569Z,47.90
2019-02-18T22:45:10.678Z,47.90
2019-02-18T22:47:40.184Z,45.00
2019-02-18T22:50:09.924Z,48.47
2019-02-18T22:52:42.275Z,46.27
2019-02-18T22:55:11.827Z,43.80
2019-02-18T22:57:41.338Z,39.70
2019-02-18T23:00:52.139Z,43.83
2019-02-18T23:03:22.656Z,47.50
2019-02-18T23:05:52.530Z,41.93
2019-02-18T23:08:22.107Z,43.17
2019-02-18T23:10:51.766Z,37.27
2019-02-18T23:13:21.552Z,38.47
2019-02-18T23:15:51.030Z,40.03
2019-02-18T23:18:20.526Z,44.87
2019-02-18T23:20:50.097Z,43.23
2019-02-18T23:23:19.608Z,41.03
2019-02-18T23:25:49.110Z,43.83
2019-02-18T23:28:18.855Z,44.50
2019-02-18T23:30:48.361Z,43.30
2019-02-18T23:33:17.885Z,43.90
2019-02-18T23:35:47.382Z,38.90
2019-02-18T23:38:16.854Z,38.43
2019-02-18T23:40:46.347Z,41.73
2019-02-18T23:43:15.818Z,42.93
2019-02-18T23:45:45.281Z,42.40
2019-02-18T23:48:14.767Z,46.03
2019-02-18T23:50:44.272Z,40.63
2019-02-18T23:53:13.886Z,41.27
2019-02-18T23:55:43.369Z,40.37
2019-02-18T23:58:12.877Z,39.83
